Florence, Mississippi
Current Conditions -  °F | °C
As of 1:54 AM on Friday 28 Nov 2014 (Local Time) from KJAN Reporting Station
Clear Clear  
Wind Chill: -1°   Ceiling: Unl
Heat Index: -1°   Visibility: 10mi
Dew Point: -3°   Wind: 3mph
Humidity: 85%   Direction: 200°SSW
Pressure: 30.44"   Gusts: NA
Location:  32.15°N, 90.13°W
Report Text: KJAN 280754Z AUTO 20003KT 10SM CLR M01/M03 A3044 RMK AO2 SLP307 T10061028
Loading
Personal Weather Stations






























Interactive Weather Map New forecast layout! Learn more

10-Day Weather Forecast

Advertisements
Track Severe Weather on mobile